METAR AND TAF INFORMATION
METAR FOR AGGH
ADDS - METARS form results

(0707 UTC 18 August 2019)
Data provider http://aviationweather.gov/metar/data/
 
METAR text: AGGH 180700Z 00000KT 9999 FEW018 SCT019CB 29/24 Q1009
Conditions at: AGGH (HONIARA/HENDERSO, SB) observed 0700 UTC 18 August 2019
Temperature: 29.0°C (84°F)
Dewpoint: 24.0°C (75°F) [RH = 74%]
Pressure (altimeter): 29.79 inches Hg (1009.0 mb)
Winds: calm
Visibility: 6 or more miles (10+ km)
Ceiling: at least 12,000 feet AGL
Clouds: few clouds at 1800 feet AGL
scattered clouds at 1900 feet AGL
Weather: no significant weather observed at this time

METAR text: AGGH 180630Z 11010KT 9999 TS FEW018 SCT019CB 30/24 Q1008
Conditions at: AGGH (HONIARA/HENDERSO, SB) observed 0630 UTC 18 August 2019
Temperature: 30.0°C (86°F)
Dewpoint: 24.0°C (75°F) [RH = 70%]
Pressure (altimeter): 29.76 inches Hg (1008.0 mb)
Winds: from the ESE (110 degrees) at 12 MPH (10 knots; 5.1 m/s)
Visibility: 6 or more miles (10+ km)
Ceiling: at least 12,000 feet AGL
Clouds: few clouds at 1800 feet AGL
scattered clouds at 1900 feet AGL
Weather: TS  (thunderstorm)

Forecast for: AMD
Text: TAF AMD AGGH 180555Z 1806/1906 07012KT 9999 SCT018 INTER 1806/1810 5000 TSSH SCT018 SCT020CB T 29 27 25 24 Q 1007 1009 1010 1009
Forecast period: 0600 UTC 18 August 2019 to 0600 UTC 19 August 2019
Forecast type: FROM: standard forecast or significant change
Winds: from the ENE (70 degrees) at 14 MPH (12 knots; 6.2 m/s)
Visibility: 6 or more miles 10+ km)
Ceiling: at least 12,000 feet AGL
Clouds: scattered clouds at 1800 feet AGL
Weather: no significant weather forecast for this period
Text:
Forecast period: 0600 to 1000 UTC 18 August 2019
Forecast type: TEMPORARY: The following changes expected for less than half the time period
Visibility: 3 miles (5 km)
Ceiling: at least 12,000 feet AGL
Clouds: scattered clouds at 1800 feet AGL
scattered clouds at 2000 feet AGL
Weather: SH TS  (showers, thunderstorm)

 AIRPORT MAP

 RUNWAY INFORMATION
Runway 06 Runway length 7218 ft Runway width 148 ft
Runway elevation 28 ft Runway displaced threshold 0 ft Runway heading 68
Runway 24 Runway length 7218 ft Runway width 148 ft
Runway elevation 14 ft Runway displaced threshold 0 ft Runway heading 248

 AIRPORT FREQUENCIES
Type AFIS Name INFO Frequency 118.1 MHZ
Type INFO Name INFO Frequency 342.5 MHZ

 AIRPORT NEAR NAVIGATION AIDS
Type VOR-DME Name Honiara Frequency 112600 KHZ
Type NDB Name Honiara Frequency 348 KHZ



Powered by Virtual Airlines Manager [v2.6.2]